createdAt,value
2018-03-23T00:01:31.342Z,5.20
2018-03-23T00:04:04.841Z,5.20
2018-03-23T00:06:32.282Z,5.20
2018-03-23T00:08:59.754Z,5.10
2018-03-23T00:11:27.208Z,5.10
2018-03-23T00:13:54.667Z,5.20
2018-03-23T00:16:22.122Z,5.10
2018-03-23T00:18:49.886Z,5.20
2018-03-23T00:21:17.334Z,5.20
2018-03-23T00:23:45.469Z,5.10
2018-03-23T00:26:27.296Z,5.10
2018-03-23T00:28:54.766Z,5.10
2018-03-23T00:31:22.217Z,5.10
2018-03-23T00:33:49.684Z,5.20
2018-03-23T00:36:17.129Z,5.10
2018-03-23T00:38:44.580Z,5.20
2018-03-23T00:41:12.221Z,5.20
2018-03-23T00:43:40.434Z,5.10
2018-03-23T00:46:08.649Z,5.10
2018-03-23T00:48:36.124Z,5.10
2018-03-23T00:51:04.343Z,5.10
2018-03-23T00:53:33.712Z,5.10
2018-03-23T00:56:01.946Z,5.10
2018-03-23T00:58:29.485Z,5.10
2018-03-23T01:00:57.720Z,5.20
2018-03-23T01:03:25.937Z,5.10
2018-03-23T01:05:53.407Z,5.10
2018-03-23T01:08:35.900Z,5.10
2018-03-23T01:11:03.357Z,5.10
2018-03-23T01:13:30.928Z,5.10
2018-03-23T01:15:58.381Z,5.10
2018-03-23T01:18:25.866Z,5.10
2018-03-23T01:20:57.078Z,5.10
2018-03-23T01:23:24.572Z,5.10
2018-03-23T01:25:52.008Z,5.10
2018-03-23T01:28:19.448Z,5.10
2018-03-23T01:30:50.813Z,5.10
2018-03-23T01:33:18.282Z,5.10
2018-03-23T01:35:45.746Z,5.10
2018-03-23T01:38:13.201Z,5.10
2018-03-23T01:40:40.668Z,5.10
2018-03-23T01:43:08.121Z,5.10
2018-03-23T01:45:35.565Z,5.10
2018-03-23T01:48:03.157Z,5.10
2018-03-23T01:50:30.610Z,5.10
2018-03-23T01:52:58.070Z,5.10
2018-03-23T01:55:25.516Z,5.10
2018-03-23T01:57:52.984Z,5.10
2018-03-23T02:00:20.441Z,5.10
2018-03-23T02:02:47.904Z,5.10
2018-03-23T02:05:16.125Z,5.20
2018-03-23T02:07:43.911Z,5.10
2018-03-23T02:10:11.357Z,5.10
2018-03-23T02:12:38.809Z,5.20
2018-03-23T02:15:06.297Z,5.10
2018-03-23T02:17:33.754Z,5.10
2018-03-23T02:20:01.252Z,5.10
2018-03-23T02:22:29.645Z,5.20
2018-03-23T02:24:57.089Z,5.10
2018-03-23T02:27:25.326Z,5.10
2018-03-23T02:29:52.768Z,5.10
2018-03-23T02:32:20.278Z,5.10
2018-03-23T02:34:47.722Z,5.20
2018-03-23T02:37:16.024Z,5.20
2018-03-23T02:42:40.008Z,5.10
2018-03-23T02:45:13.674Z,5.10
2018-03-23T02:47:41.277Z,5.10
2018-03-23T02:50:08.729Z,5.10
2018-03-23T02:52:36.949Z,5.10
2018-03-23T02:55:04.424Z,5.10
2018-03-23T02:57:31.870Z,5.10
2018-03-23T02:59:59.330Z,5.20
2018-03-23T03:02:26.967Z,5.20
2018-03-23T03:04:54.410Z,5.10
2018-03-23T03:07:21.852Z,5.20
2018-03-23T03:09:50.160Z,5.20
2018-03-23T03:12:18.365Z,5.20
2018-03-23T03:14:45.832Z,5.20
2018-03-23T03:17:13.289Z,5.20
2018-03-23T03:19:41.133Z,5.20
2018-03-23T03:22:08.578Z,5.20
2018-03-23T03:24:36.026Z,5.20
2018-03-23T03:27:03.489Z,5.20
2018-03-23T03:29:30.945Z,5.20
2018-03-23T03:31:59.170Z,5.20
2018-03-23T03:34:30.812Z,5.20
2018-03-23T03:36:58.282Z,5.20
2018-03-23T03:39:25.876Z,5.20
2018-03-23T03:41:58.321Z,5.20
2018-03-23T03:44:25.801Z,5.20
2018-03-23T03:46:54.014Z,5.20
2018-03-23T03:49:21.755Z,5.20
2018-03-23T03:51:49.277Z,5.20
2018-03-23T03:54:16.724Z,5.20
2018-03-23T03:56:44.163Z,5.20
2018-03-23T03:59:11.704Z,5.20
2018-03-23T04:01:39.140Z,5.20
2018-03-23T04:04:06.576Z,5.20
2018-03-23T04:06:34.821Z,5.20
2018-03-23T04:09:02.257Z,5.20
2018-03-23T04:11:31.444Z,5.20
2018-03-23T04:13:59.048Z,5.20
2018-03-23T04:16:26.912Z,5.20
2018-03-23T04:18:54.369Z,5.20
2018-03-23T04:21:26.913Z,5.20
2018-03-23T04:24:03.309Z,5.10
2018-03-23T04:26:30.773Z,5.20
2018-03-23T04:28:58.260Z,5.10
2018-03-23T04:31:25.700Z,5.10
2018-03-23T04:33:53.150Z,5.20
2018-03-23T04:36:22.244Z,5.10
2018-03-23T04:38:49.693Z,5.20
2018-03-23T04:41:17.196Z,5.20
2018-03-23T04:43:44.640Z,5.10
2018-03-23T04:46:12.854Z,5.20
2018-03-23T04:48:40.321Z,5.10
2018-03-23T04:51:07.771Z,5.10
2018-03-23T04:53:36.575Z,5.10
2018-03-23T04:56:04.024Z,5.10
2018-03-23T04:58:31.472Z,5.20
2018-03-23T05:00:58.938Z,5.20
2018-03-23T05:03:26.408Z,5.20
2018-03-23T05:05:53.889Z,5.20
2018-03-23T05:08:21.508Z,5.20
2018-03-23T05:10:49.289Z,5.20
2018-03-23T05:13:16.740Z,5.20
2018-03-23T05:15:44.260Z,5.20
2018-03-23T05:18:12.552Z,5.10
2018-03-23T05:20:40.009Z,5.10
2018-03-23T05:23:07.640Z,5.10
2018-03-23T05:25:35.941Z,5.10
2018-03-23T05:28:04.140Z,5.10
2018-03-23T05:30:31.904Z,5.10
2018-03-23T05:33:00.527Z,5.10
2018-03-23T05:35:27.973Z,5.10
2018-03-23T05:37:55.836Z,5.10
2018-03-23T05:40:24.184Z,5.10
2018-03-23T05:42:51.645Z,5.10
2018-03-23T05:45:19.108Z,5.10
2018-03-23T05:47:46.573Z,5.10
2018-03-23T05:50:14.181Z,5.10
2018-03-23T05:52:42.393Z,5.10
2018-03-23T05:55:09.876Z,5.10
2018-03-23T05:57:37.325Z,5.10
2018-03-23T06:00:04.769Z,5.10
2018-03-23T06:02:32.374Z,5.10
2018-03-23T06:04:59.817Z,5.10
2018-03-23T06:07:27.265Z,5.10
2018-03-23T06:09:54.836Z,5.10
2018-03-23T06:12:22.280Z,5.10
2018-03-23T06:14:49.769Z,5.00
2018-03-23T06:17:17.219Z,5.00
2018-03-23T06:19:44.669Z,5.00
2018-03-23T06:22:12.192Z,5.00
2018-03-23T06:24:39.670Z,5.00
2018-03-23T06:27:07.113Z,4.90
2018-03-23T06:29:34.630Z,5.00
2018-03-23T06:32:02.852Z,4.90
2018-03-23T06:34:30.301Z,4.90
2018-03-23T06:36:57.768Z,4.90
2018-03-23T06:39:25.225Z,4.90
2018-03-23T06:41:52.783Z,4.90
2018-03-23T06:44:20.220Z,4.90
2018-03-23T06:46:47.693Z,4.90
2018-03-23T06:49:15.159Z,4.80
2018-03-23T06:51:42.608Z,4.80
2018-03-23T06:54:10.139Z,4.80
2018-03-23T06:56:37.624Z,4.80
2018-03-23T06:59:05.094Z,4.80
2018-03-23T07:01:32.628Z,4.80
2018-03-23T07:04:00.097Z,4.80
2018-03-23T07:06:27.553Z,4.80
2018-03-23T07:08:55.065Z,4.80
2018-03-23T07:11:22.499Z,4.80
2018-03-23T07:13:49.984Z,4.80
2018-03-23T07:16:18.203Z,4.80
2018-03-23T07:18:45.668Z,4.80
2018-03-23T07:21:13.153Z,4.80
2018-03-23T07:23:40.728Z,4.80
2018-03-23T07:26:08.161Z,4.70
2018-03-23T07:28:35.627Z,4.70
2018-03-23T07:31:03.071Z,4.70
2018-03-23T07:33:30.544Z,4.70
2018-03-23T07:35:58.004Z,4.70
2018-03-23T07:38:25.629Z,4.70
2018-03-23T07:40:53.066Z,4.70
2018-03-23T07:43:20.501Z,4.70
2018-03-23T07:45:48.917Z,4.80
2018-03-23T07:48:16.418Z,4.80
2018-03-23T07:50:43.861Z,4.80
2018-03-23T07:53:11.325Z,4.80
2018-03-23T07:55:38.776Z,4.80
2018-03-23T07:58:06.407Z,4.90
2018-03-23T08:00:33.840Z,4.90
2018-03-23T08:03:02.153Z,4.90
2018-03-23T08:05:29.588Z,4.90
2018-03-23T08:07:57.024Z,4.90
2018-03-23T08:10:25.376Z,4.90
2018-03-23T08:12:52.837Z,4.90
2018-03-23T08:15:20.283Z,4.90
2018-03-23T08:17:47.769Z,4.80
2018-03-23T08:20:15.252Z,4.90
2018-03-23T08:22:42.717Z,4.90
2018-03-23T08:25:10.336Z,5.00
2018-03-23T08:27:37.777Z,5.00
2018-03-23T08:30:05.240Z,5.10
2018-03-23T08:32:32.704Z,5.10
2018-03-23T08:35:00.185Z,5.20
2018-03-23T08:37:31.572Z,5.30
2018-03-23T08:40:00.493Z,5.30
2018-03-23T08:42:27.953Z,5.40
2018-03-23T08:44:55.423Z,5.50
2018-03-23T08:47:22.869Z,5.60
2018-03-23T08:49:50.336Z,5.60
2018-03-23T08:52:17.796Z,5.70
2018-03-23T08:54:45.236Z,5.60
2018-03-23T08:57:12.766Z,5.70
2018-03-23T08:59:40.717Z,5.70
2018-03-23T09:02:08.171Z,5.70
2018-03-23T09:04:36.404Z,5.80
2018-03-23T09:07:03.876Z,5.80
2018-03-23T09:09:31.439Z,5.90
2018-03-23T09:11:58.872Z,5.90
2018-03-23T09:14:26.315Z,6.00
2018-03-23T09:16:53.780Z,6.10
2018-03-23T09:19:21.235Z,6.10
2018-03-23T09:21:48.735Z,6.10
2018-03-23T09:24:16.154Z,6.10
2018-03-23T09:26:43.806Z,6.20
2018-03-23T09:29:13.132Z,6.20
2018-03-23T09:31:40.598Z,6.20
2018-03-23T09:34:08.076Z,6.20
2018-03-23T09:36:35.524Z,6.30
2018-03-23T09:39:02.977Z,6.30
2018-03-23T09:41:30.648Z,6.30
2018-03-23T09:43:58.123Z,6.30
2018-03-23T09:46:26.346Z,6.40
2018-03-23T09:48:53.816Z,6.40
2018-03-23T09:51:21.298Z,6.40
2018-03-23T09:53:48.775Z,6.40
2018-03-23T09:56:16.223Z,6.50
2018-03-23T09:58:43.672Z,6.50
2018-03-23T10:01:12.742Z,6.60
2018-03-23T10:03:40.243Z,6.60
2018-03-23T10:06:07.738Z,6.60
2018-03-23T10:08:35.185Z,6.60
2018-03-23T10:11:02.646Z,6.60
2018-03-23T10:13:30.108Z,6.50
2018-03-23T10:15:57.548Z,6.50
2018-03-23T10:18:25.140Z,6.50
2018-03-23T10:20:52.707Z,6.50
2018-03-23T10:23:20.189Z,6.50
2018-03-23T10:25:48.384Z,6.50
2018-03-23T10:28:15.826Z,6.50
2018-03-23T10:30:44.064Z,6.70
2018-03-23T10:33:11.504Z,6.60
2018-03-23T10:35:38.957Z,6.70
2018-03-23T10:38:06.552Z,6.80
2018-03-23T10:40:33.996Z,6.90
2018-03-23T10:43:01.456Z,7.00
2018-03-23T10:45:28.920Z,7.00
2018-03-23T10:47:56.397Z,7.10
2018-03-23T10:50:23.836Z,7.10
2018-03-23T10:52:51.335Z,7.10
2018-03-23T10:55:19.542Z,7.20
2018-03-23T10:57:47.537Z,7.20
2018-03-23T11:00:14.989Z,7.20
2018-03-23T11:02:48.205Z,7.20
2018-03-23T11:05:15.664Z,7.30
2018-03-23T11:07:43.129Z,7.30
2018-03-23T11:10:11.353Z,7.40
2018-03-23T11:12:38.828Z,7.40
2018-03-23T11:15:06.282Z,7.40
2018-03-23T11:17:33.904Z,7.50
2018-03-23T11:20:01.560Z,7.50
2018-03-23T11:22:29.011Z,7.50
2018-03-23T11:24:56.472Z,7.60
2018-03-23T11:27:23.909Z,7.70
2018-03-23T11:29:51.448Z,7.80
2018-03-23T11:32:18.901Z,7.80
2018-03-23T11:34:46.352Z,7.80
2018-03-23T11:37:16.481Z,7.90
2018-03-23T11:51:06.156Z,8.00
2018-03-23T11:53:33.691Z,8.00
2018-03-23T11:56:01.139Z,8.10
2018-03-23T11:58:32.812Z,8.10
2018-03-23T12:01:00.248Z,8.10
2018-03-23T12:03:27.698Z,8.10
2018-03-23T12:05:55.218Z,8.10
2018-03-23T12:08:23.429Z,8.10
2018-03-23T12:10:50.889Z,8.10
2018-03-23T12:13:18.488Z,8.10
2018-03-23T12:15:45.932Z,8.10
2018-03-23T12:18:13.397Z,8.10
2018-03-23T12:20:41.090Z,8.10
2018-03-23T12:23:09.352Z,8.20
2018-03-23T12:25:36.809Z,8.10
2018-03-23T12:28:04.320Z,8.20
2018-03-23T12:30:31.779Z,8.20
2018-03-23T12:32:59.298Z,8.20
2018-03-23T12:35:27.526Z,8.30
2018-03-23T12:37:55.176Z,8.20
2018-03-23T12:40:22.612Z,8.30
2018-03-23T12:42:50.225Z,8.30
2018-03-23T12:45:17.667Z,8.30
2018-03-23T12:47:45.885Z,8.20
2018-03-23T12:50:13.372Z,8.30
2018-03-23T12:52:40.871Z,8.20
2018-03-23T12:55:08.309Z,8.20
2018-03-23T12:57:36.674Z,8.20
2018-03-23T13:00:04.235Z,8.20
2018-03-23T13:02:31.737Z,8.20
2018-03-23T13:04:59.173Z,8.20
2018-03-23T13:07:26.640Z,8.20
2018-03-23T13:09:54.077Z,8.20
2018-03-23T13:12:21.543Z,8.20
2018-03-23T13:14:48.997Z,8.20
2018-03-23T13:17:16.634Z,8.20
2018-03-23T13:19:44.065Z,8.20
2018-03-23T13:22:12.352Z,8.20
2018-03-23T13:24:39.818Z,8.20
2018-03-23T13:27:07.252Z,8.20
2018-03-23T13:29:36.371Z,8.20
2018-03-23T13:32:03.809Z,8.20
2018-03-23T13:34:32.175Z,8.20
2018-03-23T13:37:02.401Z,8.20
2018-03-23T13:39:30.672Z,8.20
2018-03-23T13:42:00.029Z,8.10
2018-03-23T13:44:27.499Z,8.10
2018-03-23T13:46:54.936Z,8.10
2018-03-23T13:49:22.460Z,8.10
2018-03-23T13:51:49.949Z,8.10
2018-03-23T13:54:17.392Z,8.10
2018-03-23T13:56:44.829Z,8.00
2018-03-23T13:59:18.089Z,8.00
2018-03-23T14:01:45.524Z,8.00
2018-03-23T14:04:13.188Z,8.00
2018-03-23T14:06:42.530Z,8.00
2018-03-23T14:09:10.962Z,8.00
2018-03-23T14:11:38.751Z,7.90
2018-03-23T14:14:06.672Z,7.90
2018-03-23T14:16:34.497Z,7.90
2018-03-23T14:19:03.037Z,7.80
2018-03-23T14:21:30.536Z,7.80
2018-03-23T14:23:57.989Z,7.80
2018-03-23T14:26:25.449Z,7.80
2018-03-23T14:28:52.933Z,7.80
2018-03-23T14:31:20.364Z,7.70
2018-03-23T14:33:47.817Z,7.70
2018-03-23T14:36:15.256Z,7.70
2018-03-23T14:38:42.889Z,7.70
2018-03-23T14:41:11.093Z,7.60
2018-03-23T14:43:38.598Z,7.60
2018-03-23T14:46:06.052Z,7.60
2018-03-23T14:48:33.500Z,7.60
2018-03-23T14:51:01.056Z,7.60
2018-03-23T14:53:28.508Z,7.60
2018-03-23T14:55:59.650Z,7.60
2018-03-23T14:58:27.392Z,7.60
2018-03-23T15:00:54.849Z,7.60
2018-03-23T15:03:22.287Z,7.60
2018-03-23T15:05:49.760Z,7.60
2018-03-23T15:08:17.192Z,7.60
2018-03-23T15:10:45.390Z,7.70
2018-03-23T15:13:12.980Z,7.60
2018-03-23T15:15:40.439Z,7.50
2018-03-23T15:18:07.904Z,7.50
2018-03-23T15:20:35.344Z,7.50
2018-03-23T15:23:02.805Z,7.50
2018-03-23T15:25:30.242Z,7.50
2018-03-23T15:27:57.868Z,7.50
2018-03-23T15:30:25.304Z,7.50
2018-03-23T15:32:52.772Z,7.50
2018-03-23T15:35:21.105Z,7.50
2018-03-23T15:37:48.569Z,7.50
2018-03-23T15:40:15.996Z,7.50
2018-03-23T15:42:43.462Z,7.50
2018-03-23T15:45:10.915Z,7.50
2018-03-23T15:47:39.452Z,7.40
2018-03-23T15:50:06.898Z,7.40
2018-03-23T15:52:34.367Z,7.40
2018-03-23T15:55:01.813Z,7.40
2018-03-23T15:57:29.269Z,7.30
2018-03-23T15:59:56.700Z,7.30
2018-03-23T16:02:24.254Z,7.20
2018-03-23T16:04:51.862Z,7.20
2018-03-23T16:07:20.298Z,7.20
2018-03-23T16:09:47.801Z,7.10
2018-03-23T16:12:15.261Z,7.10
2018-03-23T16:14:42.713Z,7.10
2018-03-23T16:17:10.160Z,7.00
2018-03-23T16:19:37.668Z,7.00
2018-03-23T16:22:05.178Z,7.00
2018-03-23T16:24:32.669Z,6.90
2018-03-23T16:27:00.873Z,6.90
2018-03-23T16:29:28.364Z,6.90
2018-03-23T16:31:56.744Z,7.00
2018-03-23T16:34:24.140Z,6.90
2018-03-23T16:36:52.386Z,6.90
2018-03-23T16:39:20.844Z,6.90
2018-03-23T16:41:48.287Z,6.90
2018-03-23T16:44:17.075Z,6.90
2018-03-23T16:46:44.505Z,6.80
2018-03-23T16:49:13.249Z,6.80
2018-03-23T16:51:41.109Z,6.70
2018-03-23T16:54:09.745Z,6.70
2018-03-23T16:56:37.196Z,6.70
2018-03-23T16:59:05.399Z,6.70
2018-03-23T17:01:33.185Z,6.70
2018-03-23T17:04:00.691Z,6.60
2018-03-23T17:06:28.224Z,6.60
2018-03-23T17:08:55.774Z,6.60
2018-03-23T17:11:23.279Z,6.60
2018-03-23T17:13:50.764Z,6.60
2018-03-23T17:16:19.262Z,6.50
2018-03-23T17:18:47.111Z,6.50
2018-03-23T17:21:14.550Z,6.50
2018-03-23T17:23:42.033Z,6.50
2018-03-23T17:26:09.493Z,6.40
2018-03-23T17:28:36.989Z,6.40
2018-03-23T17:31:04.424Z,6.40
2018-03-23T17:33:32.120Z,6.40
2018-03-23T17:36:00.400Z,6.40
2018-03-23T17:38:28.856Z,6.30
2018-03-23T17:40:57.633Z,6.30
2018-03-23T17:43:25.113Z,6.30
2018-03-23T17:45:52.523Z,6.30
2018-03-23T17:48:20.021Z,6.20
2018-03-23T17:50:47.466Z,6.20
2018-03-23T17:53:15.270Z,6.20
2018-03-23T17:55:43.616Z,6.20
2018-03-23T17:58:11.271Z,6.20
2018-03-23T18:00:39.361Z,6.10
2018-03-23T18:03:11.592Z,6.10
2018-03-23T18:05:39.085Z,6.10
2018-03-23T18:08:07.779Z,6.10
2018-03-23T18:10:36.163Z,6.10
2018-03-23T18:13:07.357Z,6.00
2018-03-23T18:15:53.213Z,6.10
2018-03-23T18:18:21.416Z,6.00
2018-03-23T18:20:48.900Z,6.00
2018-03-23T18:23:16.336Z,6.00
2018-03-23T18:25:43.792Z,6.00
2018-03-23T18:28:17.552Z,6.00
2018-03-23T18:30:45.141Z,6.00
2018-03-23T18:33:12.572Z,5.90
2018-03-23T18:35:40.830Z,5.90
2018-03-23T18:38:08.320Z,5.90
2018-03-23T18:40:36.591Z,5.90
2018-03-23T18:43:04.814Z,5.90
2018-03-23T18:45:32.267Z,5.90
2018-03-23T18:47:59.811Z,5.90
2018-03-23T18:50:28.264Z,5.80
2018-03-23T18:52:56.462Z,5.80
2018-03-23T18:55:23.929Z,5.80
2018-03-23T18:57:51.385Z,5.80
2018-03-23T19:00:18.872Z,5.80
2018-03-23T19:02:48.300Z,5.70
2018-03-23T19:05:15.915Z,5.70
2018-03-23T19:07:43.539Z,5.70
2018-03-23T19:10:11.767Z,5.70
2018-03-23T19:12:39.216Z,5.70
2018-03-23T19:15:06.793Z,5.70
2018-03-23T19:17:34.209Z,5.70
2018-03-23T19:20:01.680Z,5.70
2018-03-23T19:22:29.890Z,5.70
2018-03-23T19:24:57.382Z,5.70
2018-03-23T19:27:25.597Z,5.60
2018-03-23T19:29:53.250Z,5.60
2018-03-23T19:35:11.472Z,5.60
2018-03-23T19:37:42.476Z,5.60
2018-03-23T19:40:09.950Z,5.60
2018-03-23T19:42:38.155Z,5.60
2018-03-23T19:45:05.597Z,5.60
2018-03-23T19:47:33.161Z,5.60
2018-03-23T19:50:01.371Z,5.60
2018-03-23T19:52:34.825Z,5.60
2018-03-23T19:55:03.660Z,5.60
2018-03-23T19:57:31.766Z,5.60
2018-03-23T19:59:59.192Z,5.60
2018-03-23T20:02:27.152Z,5.60
2018-03-23T20:04:54.602Z,5.60
2018-03-23T20:07:22.048Z,5.60
2018-03-23T20:09:49.525Z,5.60
2018-03-23T20:12:16.997Z,5.60
2018-03-23T20:14:46.417Z,5.60
2018-03-23T20:17:14.096Z,5.60
2018-03-23T20:19:42.314Z,5.60
2018-03-23T20:22:09.797Z,5.50
2018-03-23T20:24:37.381Z,5.60
2018-03-23T20:27:10.595Z,5.60
2018-03-23T20:29:39.940Z,5.60
2018-03-23T20:32:23.256Z,5.50
2018-03-23T20:34:51.961Z,5.50
2018-03-23T20:37:19.445Z,5.50
2018-03-23T20:39:47.704Z,5.50
2018-03-23T20:42:15.143Z,5.50
2018-03-23T20:44:42.609Z,5.50
2018-03-23T20:47:10.166Z,5.50
2018-03-23T20:49:37.576Z,5.50
2018-03-23T20:52:05.045Z,5.50
2018-03-23T20:54:32.486Z,5.50
2018-03-23T20:57:00.720Z,5.50
2018-03-23T20:59:28.161Z,5.40
2018-03-23T21:01:55.608Z,5.40
2018-03-23T21:04:23.613Z,5.40
2018-03-23T21:06:51.041Z,5.40
2018-03-23T21:09:18.484Z,5.40
2018-03-23T21:11:45.960Z,5.40
2018-03-23T21:14:13.428Z,5.40
2018-03-23T21:16:40.861Z,5.40
2018-03-23T21:19:08.396Z,5.40
2018-03-23T21:21:35.968Z,5.40
2018-03-23T21:24:03.437Z,5.30
2018-03-23T21:26:30.879Z,5.30
2018-03-23T21:28:58.457Z,5.30
2018-03-23T21:31:25.864Z,5.30
2018-03-23T21:33:53.304Z,5.30
2018-03-23T21:36:20.905Z,5.30
2018-03-23T21:38:48.379Z,5.30
2018-03-23T21:41:20.597Z,5.30
2018-03-23T21:43:48.404Z,5.20
2018-03-23T21:46:16.596Z,5.20
2018-03-23T21:48:44.032Z,5.20
2018-03-23T21:51:11.689Z,5.20
2018-03-23T21:53:39.184Z,5.20
2018-03-23T21:56:08.632Z,5.10
2018-03-23T21:58:36.104Z,5.10
2018-03-23T22:01:05.448Z,5.10
2018-03-23T22:03:32.896Z,5.10
2018-03-23T22:06:00.381Z,5.10
2018-03-23T22:08:28.735Z,5.00
2018-03-23T22:10:56.168Z,5.00
2018-03-23T22:13:23.669Z,5.00
2018-03-23T22:15:51.095Z,5.00
2018-03-23T22:18:18.548Z,5.00
2018-03-23T22:20:45.995Z,4.90
2018-03-23T22:23:15.784Z,4.90
2018-03-23T22:25:43.216Z,4.90
2018-03-23T22:28:10.672Z,4.90
2018-03-23T22:30:38.157Z,4.90
2018-03-23T22:33:05.596Z,4.90
2018-03-23T22:35:33.038Z,4.90
2018-03-23T22:38:00.524Z,4.90
2018-03-23T22:40:27.985Z,4.80
2018-03-23T22:42:55.425Z,4.80
2018-03-23T22:45:22.926Z,4.80
2018-03-23T22:47:53.113Z,4.70
2018-03-23T22:50:20.554Z,4.70
2018-03-23T22:52:48.060Z,4.70
2018-03-23T22:55:34.173Z,4.60
2018-03-23T22:58:02.916Z,4.50
2018-03-23T23:00:30.432Z,4.50
2018-03-23T23:02:57.936Z,4.50
2018-03-23T23:05:26.264Z,4.40
2018-03-23T23:07:53.704Z,4.40
2018-03-23T23:10:21.327Z,4.30
2018-03-23T23:12:48.774Z,4.30
2018-03-23T23:15:16.224Z,4.20
2018-03-23T23:17:43.725Z,4.20
2018-03-23T23:20:29.953Z,4.10
2018-03-23T23:22:57.464Z,4.10
2018-03-23T23:25:24.901Z,4.00
2018-03-23T23:27:52.345Z,4.00
2018-03-23T23:30:19.904Z,4.00
2018-03-23T23:32:47.608Z,3.90
2018-03-23T23:35:15.815Z,3.80
2018-03-23T23:37:43.302Z,3.80
2018-03-23T23:40:10.741Z,3.70
2018-03-23T23:42:38.208Z,3.70
2018-03-23T23:45:06.416Z,3.60
2018-03-23T23:47:33.882Z,3.50
2018-03-23T23:50:01.330Z,3.50
2018-03-23T23:52:30.786Z,3.50
2018-03-23T23:54:58.217Z,3.40
2018-03-23T23:57:26.444Z,3.30
2018-03-23T23:59:53.889Z,3.30
